createdAt,value
2022-12-18T00:01:29.833Z,16.07
2022-12-18T00:03:58.118Z,18.70
2022-12-18T00:06:28.125Z,14.73
2022-12-18T00:08:58.554Z,16.20
2022-12-18T00:11:28.752Z,17.70
2022-12-18T00:13:58.661Z,15.13
2022-12-18T00:16:28.346Z,13.17
2022-12-18T00:18:58.297Z,13.27
2022-12-18T00:21:26.584Z,12.73
2022-12-18T00:23:54.718Z,14.57
2022-12-18T00:26:26.451Z,12.97
2022-12-18T00:29:01.160Z,10.57
2022-12-18T00:31:29.615Z,10.37
2022-12-18T00:33:58.155Z,13.47
2022-12-18T00:36:28.379Z,15.40
2022-12-18T00:38:57.224Z,13.57
2022-12-18T00:41:43.897Z,12.00
2022-12-18T00:44:13.270Z,13.77
2022-12-18T00:46:42.384Z,14.23
2022-12-18T00:49:10.314Z,14.00
2022-12-18T00:51:38.115Z,12.07
2022-12-18T00:54:06.338Z,12.53
2022-12-18T00:56:45.722Z,13.43
2022-12-18T00:59:16.855Z,13.07
2022-12-18T01:01:44.770Z,13.07
2022-12-18T01:04:12.739Z,12.77
2022-12-18T01:06:40.480Z,13.57
2022-12-18T01:09:08.239Z,11.30
2022-12-18T01:11:39.477Z,13.83
2022-12-18T01:14:07.657Z,16.73
2022-12-18T01:16:35.488Z,10.67
2022-12-18T01:19:06.017Z,11.03
2022-12-18T01:21:34.467Z,12.40
2022-12-18T01:24:06.013Z,10.73
2022-12-18T01:26:33.815Z,11.57
2022-12-18T01:29:03.076Z,11.57
2022-12-18T01:31:33.814Z,12.47
2022-12-18T01:34:04.226Z,11.97
2022-12-18T01:36:36.825Z,10.77
2022-12-18T01:39:07.477Z,10.50
2022-12-18T01:41:50.413Z,12.23
2022-12-18T01:44:54.395Z,10.57
2022-12-18T01:47:27.789Z,10.40
2022-12-18T01:49:57.764Z,12.30
2022-12-18T01:52:30.181Z,11.33
2022-12-18T01:54:58.785Z,12.43
2022-12-18T01:57:28.705Z,13.47
2022-12-18T02:00:01.117Z,12.40
2022-12-18T02:02:31.688Z,11.50
2022-12-18T02:05:01.268Z,11.63
2022-12-18T02:07:39.720Z,11.33
2022-12-18T02:10:15.920Z,12.17
2022-12-18T02:12:47.082Z,14.33
2022-12-18T02:15:18.549Z,14.47
2022-12-18T02:17:54.267Z,10.23
2022-12-18T02:20:27.377Z,12.53
2022-12-18T02:23:08.705Z,14.10
2022-12-18T02:26:01.127Z,13.27
2022-12-18T02:28:33.924Z,12.80
2022-12-18T02:31:09.972Z,13.67
2022-12-18T02:33:39.266Z,12.00
2022-12-18T02:36:08.673Z,13.50
2022-12-18T02:38:37.274Z,13.93
2022-12-18T02:41:15.043Z,11.83
2022-12-18T02:43:55.087Z,14.87
2022-12-18T02:46:32.957Z,11.70
2022-12-18T02:49:13.255Z,12.73
2022-12-18T02:51:50.873Z,12.53
2022-12-18T02:54:28.716Z,13.87
2022-12-18T02:57:05.901Z,10.90
2022-12-18T02:59:40.699Z,11.93
2022-12-18T03:02:19.515Z,11.03
2022-12-18T03:04:52.338Z,11.10
2022-12-18T03:07:36.105Z,11.90
2022-12-18T03:10:10.905Z,10.57
2022-12-18T03:12:45.350Z,12.13
2022-12-18T03:15:19.411Z,11.37
2022-12-18T03:17:55.093Z,10.23
2022-12-18T03:20:30.006Z,12.20
2022-12-18T03:23:04.804Z,11.10
2022-12-18T03:25:34.575Z,11.57
2022-12-18T03:28:05.223Z,13.20
2022-12-18T03:30:35.428Z,12.60
2022-12-18T03:33:07.949Z,10.87
2022-12-18T03:35:41.074Z,11.40
2022-12-18T03:38:09.871Z,10.60
2022-12-18T03:40:52.660Z,8.47
2022-12-18T03:43:33.418Z,12.57
2022-12-18T03:46:07.561Z,10.27
2022-12-18T03:48:41.527Z,11.13
2022-12-18T03:51:19.207Z,11.83
2022-12-18T03:53:51.962Z,11.97
2022-12-18T03:56:27.415Z,9.73
2022-12-18T03:58:58.663Z,12.93
2022-12-18T04:01:33.903Z,10.20
2022-12-18T04:04:03.346Z,10.03
2022-12-18T04:06:39.357Z,11.30
2022-12-18T04:09:07.626Z,13.33
2022-12-18T04:11:39.560Z,10.90
2022-12-18T04:14:11.969Z,10.20
2022-12-18T04:16:43.842Z,11.97
2022-12-18T04:19:15.082Z,10.23
2022-12-18T04:21:44.862Z,10.60
2022-12-18T04:24:14.957Z,10.07
2022-12-18T04:26:51.630Z,8.37
2022-12-18T04:29:26.123Z,9.87
2022-12-18T04:31:53.920Z,10.27
2022-12-18T04:34:22.827Z,12.93
2022-12-18T04:36:53.692Z,9.70
2022-12-18T04:39:23.012Z,11.37
2022-12-18T04:41:52.732Z,11.03
2022-12-18T04:44:20.496Z,11.07
2022-12-18T04:46:49.608Z,10.47
2022-12-18T04:49:17.448Z,11.53
2022-12-18T04:51:45.656Z,8.63
2022-12-18T04:54:13.407Z,10.87
2022-12-18T04:56:41.723Z,10.50
2022-12-18T04:59:09.492Z,9.93
2022-12-18T05:01:37.323Z,11.13
2022-12-18T05:04:06.604Z,10.20
2022-12-18T05:06:34.405Z,10.23
2022-12-18T05:09:02.094Z,10.77
2022-12-18T05:11:29.932Z,9.87
2022-12-18T05:14:00.721Z,10.50
2022-12-18T05:16:28.464Z,11.23
2022-12-18T05:18:56.252Z,11.47
2022-12-18T05:21:25.316Z,9.77
2022-12-18T05:23:53.116Z,11.33
2022-12-18T05:26:20.896Z,11.40
2022-12-18T05:28:48.667Z,10.97
2022-12-18T05:31:16.732Z,8.83
2022-12-18T05:33:44.632Z,10.03
2022-12-18T05:36:12.730Z,11.10
2022-12-18T05:38:42.672Z,10.37
2022-12-18T05:41:10.990Z,11.27
2022-12-18T05:43:40.487Z,13.87
2022-12-18T05:46:10.058Z,10.57
2022-12-18T05:48:37.854Z,10.23
2022-12-18T05:51:08.053Z,9.67
2022-12-18T05:53:37.090Z,14.57
2022-12-18T05:56:08.992Z,10.57
2022-12-18T05:58:37.660Z,8.67
2022-12-18T06:01:10.424Z,8.60
2022-12-18T06:03:38.790Z,12.37
2022-12-18T06:06:14.287Z,10.73
2022-12-18T06:08:46.242Z,11.33
2022-12-18T06:11:19.510Z,12.27
2022-12-18T06:13:47.523Z,11.20
2022-12-18T06:16:15.452Z,11.70
2022-12-18T06:18:43.291Z,10.43
2022-12-18T06:21:11.067Z,11.63
2022-12-18T06:23:39.297Z,10.10
2022-12-18T06:26:08.346Z,10.57
2022-12-18T06:28:37.445Z,12.23
2022-12-18T06:31:06.410Z,10.13
2022-12-18T06:33:34.848Z,10.63
2022-12-18T06:36:03.964Z,10.97
2022-12-18T06:38:32.891Z,12.33
2022-12-18T06:41:00.652Z,12.20
2022-12-18T06:43:28.423Z,12.20
2022-12-18T06:46:01.862Z,11.17
2022-12-18T06:48:30.063Z,11.80
2022-12-18T06:50:57.856Z,14.10
2022-12-18T06:53:28.493Z,11.40
2022-12-18T06:56:10.850Z,12.53
2022-12-18T06:58:38.917Z,11.73
2022-12-18T07:01:11.111Z,13.03
2022-12-18T07:03:39.761Z,11.83
2022-12-18T07:06:08.768Z,10.33
2022-12-18T07:08:36.509Z,10.57
2022-12-18T07:11:06.105Z,12.23
2022-12-18T07:13:33.908Z,13.13
2022-12-18T07:16:18.314Z,11.60
2022-12-18T07:18:50.340Z,12.03
2022-12-18T07:21:20.197Z,13.33
2022-12-18T07:23:49.204Z,14.00
2022-12-18T07:26:19.278Z,13.33
2022-12-18T07:28:47.183Z,13.33
2022-12-18T07:31:18.917Z,13.53
2022-12-18T07:33:47.771Z,14.87
2022-12-18T07:36:16.377Z,12.20
2022-12-18T07:38:44.202Z,13.67
2022-12-18T07:41:14.337Z,13.00
2022-12-18T07:43:43.685Z,13.27
2022-12-18T07:46:12.339Z,13.23
2022-12-18T07:48:42.883Z,14.97
2022-12-18T07:51:15.933Z,15.27
2022-12-18T07:53:44.874Z,14.77
2022-12-18T07:56:27.035Z,16.97
2022-12-18T07:58:56.311Z,14.10
2022-12-18T08:01:24.185Z,12.67
2022-12-18T08:03:53.344Z,13.80
2022-12-18T08:06:24.259Z,13.53
2022-12-18T08:08:53.944Z,11.63
2022-12-18T08:11:21.789Z,15.17
2022-12-18T08:13:49.764Z,12.87
2022-12-18T08:16:18.043Z,15.17
2022-12-18T08:18:46.005Z,14.37
2022-12-18T08:21:17.971Z,14.60
2022-12-18T08:23:46.244Z,13.40
2022-12-18T08:26:15.306Z,15.03
2022-12-18T08:28:43.733Z,16.83
2022-12-18T08:31:11.748Z,12.67
2022-12-18T08:33:41.052Z,12.23
2022-12-18T08:36:11.796Z,14.77
2022-12-18T08:38:40.998Z,12.57
2022-12-18T08:41:11.681Z,13.90
2022-12-18T08:43:57.222Z,13.63
2022-12-18T08:46:27.729Z,14.00
2022-12-18T08:48:56.591Z,12.37
2022-12-18T08:51:24.811Z,13.37
2022-12-18T08:53:54.531Z,13.47
2022-12-18T08:56:22.313Z,12.80
2022-12-18T08:58:52.912Z,12.87
2022-12-18T09:01:21.165Z,14.20
2022-12-18T09:03:49.050Z,14.10
2022-12-18T09:06:17.908Z,14.03
2022-12-18T09:08:45.763Z,11.90
2022-12-18T09:11:22.365Z,13.20
2022-12-18T09:13:50.245Z,12.80
2022-12-18T09:16:19.044Z,15.03
2022-12-18T09:18:46.948Z,15.70
2022-12-18T09:21:17.564Z,14.13
2022-12-18T09:23:45.990Z,14.50
2022-12-18T09:26:13.679Z,13.73
2022-12-18T09:28:43.367Z,16.60
2022-12-18T09:31:13.521Z,15.53
2022-12-18T09:33:41.243Z,13.03
2022-12-18T09:36:16.923Z,15.50
2022-12-18T09:38:44.668Z,16.73
2022-12-18T09:41:29.213Z,14.63
2022-12-18T09:44:03.136Z,14.40
2022-12-18T09:46:36.602Z,14.73
2022-12-18T09:49:13.166Z,18.43
2022-12-18T09:51:47.169Z,16.43
2022-12-18T09:54:20.847Z,15.77
2022-12-18T09:56:49.025Z,15.03
2022-12-18T09:59:25.404Z,13.90
2022-12-18T10:01:53.690Z,16.97
2022-12-18T10:04:21.660Z,14.87
2022-12-18T10:06:58.256Z,13.70
2022-12-18T10:09:33.041Z,12.47
2022-12-18T10:12:09.533Z,12.77
2022-12-18T10:14:48.963Z,14.27
2022-12-18T10:17:28.462Z,14.67
2022-12-18T10:20:01.463Z,13.30
2022-12-18T10:22:45.870Z,13.70
2022-12-18T10:25:24.734Z,13.67
2022-12-18T10:27:55.604Z,12.80
2022-12-18T10:30:26.454Z,15.17
2022-12-18T10:32:55.082Z,13.70
2022-12-18T10:35:25.428Z,12.43
2022-12-18T10:38:07.897Z,14.13
2022-12-18T10:40:50.755Z,15.00
2022-12-18T10:43:23.953Z,14.43
2022-12-18T10:46:06.661Z,14.73
2022-12-18T10:48:36.207Z,14.07
2022-12-18T10:51:13.621Z,15.03
2022-12-18T10:53:44.429Z,15.13
2022-12-18T10:56:12.738Z,12.80
2022-12-18T10:58:41.313Z,12.87
2022-12-18T11:01:13.873Z,15.40
2022-12-18T11:03:43.477Z,15.23
2022-12-18T11:06:13.100Z,14.93
2022-12-18T11:08:43.121Z,14.27
2022-12-18T11:11:21.787Z,14.17
2022-12-18T11:14:01.391Z,14.83
2022-12-18T11:16:33.044Z,13.57
2022-12-18T11:19:21.169Z,14.63
2022-12-18T11:21:50.410Z,16.70
2022-12-18T11:24:25.062Z,14.33
2022-12-18T11:26:59.314Z,14.60
2022-12-18T11:29:34.637Z,16.27
2022-12-18T11:32:33.522Z,14.90
2022-12-18T11:35:10.046Z,13.30
2022-12-18T11:37:38.330Z,16.53
2022-12-18T11:40:15.513Z,16.83
2022-12-18T11:42:50.215Z,15.03
2022-12-18T11:45:27.910Z,15.03
2022-12-18T11:48:01.193Z,18.83
2022-12-18T11:50:35.150Z,15.70
2022-12-18T11:53:06.186Z,13.53
2022-12-18T11:55:53.173Z,14.60
2022-12-18T11:58:34.082Z,20.97
2022-12-18T12:01:15.896Z,16.60
2022-12-18T12:04:03.710Z,16.23
2022-12-18T12:06:40.645Z,15.27
2022-12-18T12:09:19.738Z,18.67
2022-12-18T12:11:57.865Z,15.47
2022-12-18T12:14:40.022Z,17.13
2022-12-18T12:17:14.039Z,18.27
2022-12-18T12:19:52.696Z,17.43
2022-12-18T12:22:29.898Z,14.17
2022-12-18T12:25:15.189Z,16.73
2022-12-18T12:27:51.951Z,15.53
2022-12-18T12:30:23.243Z,15.93
2022-12-18T12:33:05.485Z,16.97
2022-12-18T12:35:46.249Z,17.37
2022-12-18T12:38:18.247Z,20.97
2022-12-18T12:40:53.956Z,18.70
2022-12-18T12:43:30.482Z,22.17
2022-12-18T12:46:01.210Z,20.53
2022-12-18T12:48:43.545Z,18.97
2022-12-18T12:51:19.916Z,18.47
2022-12-18T12:53:49.813Z,18.20
2022-12-18T12:56:19.946Z,17.50
2022-12-18T12:58:59.165Z,17.03
2022-12-18T13:01:34.656Z,20.27
2022-12-18T13:04:14.932Z,17.83
2022-12-18T13:06:54.433Z,19.80
2022-12-18T13:09:22.291Z,20.60
2022-12-18T13:12:08.308Z,20.17
2022-12-18T13:14:39.085Z,19.23
2022-12-18T13:17:34.089Z,19.40
2022-12-18T13:20:09.696Z,19.70
2022-12-18T13:22:43.038Z,18.17
2022-12-18T13:25:34.633Z,17.67
2022-12-18T13:28:10.098Z,20.77
2022-12-18T13:30:57.937Z,21.93
2022-12-18T13:34:16.504Z,20.77
2022-12-18T13:36:34.748Z,21.80
2022-12-18T13:39:34.301Z,21.13
2022-12-18T13:42:55.845Z,19.50
2022-12-18T13:45:50.255Z,19.63
2022-12-18T13:48:21.211Z,19.10
2022-12-18T13:50:55.053Z,22.33
2022-12-18T13:53:26.709Z,22.53
2022-12-18T13:55:56.656Z,20.50
2022-12-18T13:58:24.498Z,21.60
2022-12-18T14:00:52.508Z,21.83
2022-12-18T14:03:24.414Z,20.60
2022-12-18T14:06:00.630Z,20.63
2022-12-18T14:08:35.143Z,19.80
2022-12-18T14:11:06.434Z,23.40
2022-12-18T14:13:38.598Z,18.77
2022-12-18T14:16:09.408Z,22.17
2022-12-18T14:18:45.897Z,21.23
2022-12-18T14:21:23.952Z,23.00
2022-12-18T14:24:04.601Z,24.63
2022-12-18T14:26:34.669Z,21.93
2022-12-18T14:29:19.479Z,23.53
2022-12-18T14:31:48.081Z,24.97
2022-12-18T14:34:18.104Z,21.33
2022-12-18T14:36:54.931Z,21.10
2022-12-18T14:39:23.131Z,24.53
2022-12-18T14:41:53.818Z,23.73
2022-12-18T14:44:22.336Z,21.60
2022-12-18T14:46:52.169Z,23.70
2022-12-18T14:49:25.170Z,20.17
2022-12-18T14:51:54.729Z,21.17
2022-12-18T14:54:25.395Z,24.17
2022-12-18T14:57:01.564Z,25.43
2022-12-18T14:59:30.576Z,22.70
2022-12-18T15:02:05.377Z,23.87
2022-12-18T15:04:36.221Z,23.93
2022-12-18T15:07:06.700Z,21.60
2022-12-18T15:09:34.489Z,22.47
2022-12-18T15:12:04.297Z,21.73
2022-12-18T15:14:42.316Z,23.63
2022-12-18T15:17:19.587Z,23.90
2022-12-18T15:19:48.757Z,23.77
2022-12-18T15:22:27.904Z,23.17
2022-12-18T15:24:56.846Z,23.13
2022-12-18T15:27:28.888Z,21.30
2022-12-18T15:30:19.294Z,23.13
2022-12-18T15:32:49.909Z,21.53
2022-12-18T15:35:20.994Z,23.93
2022-12-18T15:37:49.405Z,26.17
2022-12-18T15:40:19.313Z,25.70
2022-12-18T15:43:07.981Z,24.40
2022-12-18T15:45:35.891Z,27.23
2022-12-18T15:48:03.678Z,22.90
2022-12-18T15:50:31.852Z,28.17
2022-12-18T15:52:59.792Z,26.23
2022-12-18T15:55:44.820Z,24.17
2022-12-18T15:58:13.894Z,26.20
2022-12-18T16:00:43.016Z,26.30
2022-12-18T16:03:12.019Z,26.33
2022-12-18T16:05:39.846Z,26.60
2022-12-18T16:08:07.551Z,27.73
2022-12-18T16:10:35.511Z,26.37
2022-12-18T16:13:03.221Z,27.60
2022-12-18T16:15:32.361Z,27.60
2022-12-18T16:18:00.093Z,25.50
2022-12-18T16:20:27.852Z,29.27
2022-12-18T16:22:55.954Z,30.37
2022-12-18T16:25:25.616Z,26.80
2022-12-18T16:27:55.909Z,27.63
2022-12-18T16:30:26.457Z,32.10
2022-12-18T16:32:55.840Z,31.90
2022-12-18T16:35:25.264Z,30.97
2022-12-18T16:37:52.954Z,27.03
2022-12-18T16:40:20.807Z,29.73
2022-12-18T16:42:49.873Z,29.40
2022-12-18T16:45:19.356Z,29.37
2022-12-18T16:47:47.297Z,27.50
2022-12-18T16:50:16.424Z,29.07
2022-12-18T16:52:44.154Z,29.93
2022-12-18T16:55:11.922Z,31.07
2022-12-18T16:57:39.649Z,31.77
2022-12-18T17:00:09.007Z,31.13
2022-12-18T17:02:37.567Z,28.97
2022-12-18T17:05:06.247Z,30.30
2022-12-18T17:07:35.492Z,29.63
2022-12-18T17:10:04.785Z,32.20
2022-12-18T17:12:32.505Z,31.83
2022-12-18T17:15:00.456Z,33.23
2022-12-18T17:17:28.183Z,36.20
2022-12-18T17:19:55.853Z,33.67
2022-12-18T17:22:24.090Z,33.17
2022-12-18T17:24:53.267Z,30.47
2022-12-18T17:27:21.044Z,32.50
2022-12-18T17:29:49.243Z,32.93
2022-12-18T17:32:17.420Z,29.27
2022-12-18T17:34:45.345Z,36.53
2022-12-18T17:37:13.279Z,37.33
2022-12-18T17:39:41.195Z,36.93
2022-12-18T17:42:14.852Z,29.40
2022-12-18T17:44:43.589Z,32.30
2022-12-18T17:47:12.874Z,32.43
2022-12-18T17:49:40.823Z,33.40
2022-12-18T17:52:08.600Z,31.90
2022-12-18T17:54:39.472Z,35.37
2022-12-18T17:57:07.371Z,31.73
2022-12-18T17:59:36.463Z,32.30
2022-12-18T18:02:04.421Z,33.40
2022-12-18T18:04:32.611Z,33.03
2022-12-18T18:07:00.366Z,33.90
2022-12-18T18:09:28.522Z,43.13
2022-12-18T18:12:14.518Z,33.50
2022-12-18T18:14:43.636Z,34.03
2022-12-18T18:17:11.463Z,36.87
2022-12-18T18:19:39.214Z,38.77
2022-12-18T18:22:08.604Z,33.13
2022-12-18T18:24:36.473Z,30.77
2022-12-18T18:27:04.309Z,33.47
2022-12-18T18:29:32.267Z,35.67
2022-12-18T18:32:01.724Z,35.77
2022-12-18T18:34:31.951Z,35.60
2022-12-18T18:37:01.474Z,37.67
2022-12-18T18:39:29.738Z,35.67
2022-12-18T18:41:57.503Z,37.23
2022-12-18T18:44:26.272Z,37.53
2022-12-18T18:46:55.224Z,37.43
2022-12-18T18:49:27.692Z,37.60
2022-12-18T18:51:57.634Z,37.13
2022-12-18T18:54:25.441Z,34.47
2022-12-18T18:57:19.521Z,38.10
2022-12-18T18:59:40.950Z,34.57
2022-12-18T19:02:12.571Z,34.30
2022-12-18T19:04:46.167Z,37.20
2022-12-18T19:07:15.081Z,34.13
2022-12-18T19:09:54.083Z,33.07
2022-12-18T19:15:03.637Z,35.10
2022-12-18T19:17:31.652Z,33.77
2022-12-18T19:20:01.097Z,33.70
2022-12-18T19:22:28.837Z,33.27
2022-12-18T19:24:56.608Z,32.73
2022-12-18T19:27:24.452Z,36.53
2022-12-18T19:29:52.182Z,33.43
2022-12-18T19:32:19.980Z,36.37
2022-12-18T19:34:48.069Z,37.17
2022-12-18T19:37:17.785Z,37.33
2022-12-18T19:39:45.583Z,43.27
2022-12-18T19:42:13.510Z,34.53
2022-12-18T19:44:41.777Z,33.37
2022-12-18T19:47:09.459Z,40.00
2022-12-18T19:49:38.572Z,35.20
2022-12-18T19:52:06.528Z,35.10
2022-12-18T19:54:35.668Z,33.13
2022-12-18T19:57:05.643Z,35.93
2022-12-18T19:59:33.407Z,36.13
2022-12-18T20:02:01.328Z,36.80
2022-12-18T20:04:29.240Z,33.80
2022-12-18T20:06:57.674Z,38.10
2022-12-18T20:09:25.842Z,36.27
2022-12-18T20:11:55.389Z,30.70
2022-12-18T20:14:23.878Z,36.77
2022-12-18T20:16:53.389Z,35.23
2022-12-18T20:19:21.507Z,36.50
2022-12-18T20:21:49.454Z,37.20
2022-12-18T20:24:17.166Z,40.67
2022-12-18T20:26:44.912Z,33.17
2022-12-18T20:29:13.978Z,32.63
2022-12-18T20:31:42.039Z,36.53
2022-12-18T20:34:09.885Z,30.47
2022-12-18T20:36:38.635Z,36.27
2022-12-18T20:39:10.052Z,35.53
2022-12-18T20:41:40.197Z,34.57
2022-12-18T20:44:21.934Z,36.67
2022-12-18T20:46:53.782Z,35.20
2022-12-18T20:49:21.516Z,37.00
2022-12-18T20:51:52.360Z,34.70
2022-12-18T20:54:20.205Z,32.53
2022-12-18T20:56:47.986Z,34.27
2022-12-18T20:59:15.693Z,34.93
2022-12-18T21:01:48.536Z,35.73
2022-12-18T21:04:18.864Z,33.33
2022-12-18T21:06:51.419Z,31.37
2022-12-18T21:09:20.809Z,35.23
2022-12-18T21:12:06.145Z,30.63
2022-12-18T21:14:33.979Z,37.27
2022-12-18T21:17:02.328Z,31.80
2022-12-18T21:19:31.517Z,35.43
2022-12-18T21:21:59.574Z,33.87
2022-12-18T21:24:28.796Z,43.37
2022-12-18T21:27:00.543Z,32.63
2022-12-18T21:29:28.863Z,33.30
2022-12-18T21:31:56.917Z,33.90
2022-12-18T21:34:26.675Z,33.33
2022-12-18T21:36:57.288Z,37.07
2022-12-18T21:39:26.196Z,35.17
2022-12-18T21:42:11.457Z,33.83
2022-12-18T21:44:42.163Z,35.27
2022-12-18T21:47:21.982Z,34.63
2022-12-18T21:49:51.625Z,33.70
2022-12-18T21:52:28.334Z,36.37
2022-12-18T21:55:06.287Z,36.20
2022-12-18T21:57:36.646Z,33.03
2022-12-18T22:00:05.773Z,35.93
2022-12-18T22:02:40.087Z,30.80
2022-12-18T22:05:08.715Z,37.20
2022-12-18T22:07:37.982Z,37.27
2022-12-18T22:10:06.307Z,39.13
2022-12-18T22:12:42.898Z,37.90
2022-12-18T22:15:17.629Z,34.67
2022-12-18T22:18:00.259Z,35.23
2022-12-18T22:20:29.855Z,34.23
2022-12-18T22:22:59.546Z,32.00
2022-12-18T22:25:32.143Z,38.10
2022-12-18T22:28:19.358Z,37.33
2022-12-18T22:30:47.160Z,36.60
2022-12-18T22:33:14.902Z,37.43
2022-12-18T22:35:42.830Z,35.93
2022-12-18T22:38:11.879Z,36.10
2022-12-18T22:40:39.582Z,36.97
2022-12-18T22:43:07.270Z,38.30
2022-12-18T22:45:35.740Z,37.30
2022-12-18T22:48:06.760Z,37.43
2022-12-18T22:50:34.511Z,36.27
2022-12-18T22:53:02.269Z,36.67
2022-12-18T22:55:31.354Z,37.37
2022-12-18T22:57:59.084Z,37.43
2022-12-18T23:00:26.864Z,35.67
2022-12-18T23:03:00.396Z,34.23
2022-12-18T23:05:30.668Z,32.53
2022-12-18T23:07:59.265Z,36.97
2022-12-18T23:10:27.387Z,38.57
2022-12-18T23:12:56.536Z,40.93
2022-12-18T23:15:28.375Z,35.03
2022-12-18T23:17:57.974Z,36.43
2022-12-18T23:20:25.971Z,36.10
2022-12-18T23:22:53.814Z,38.50
2022-12-18T23:25:21.529Z,37.40
2022-12-18T23:27:49.345Z,39.70
2022-12-18T23:30:18.674Z,38.93
2022-12-18T23:32:46.492Z,37.80
2022-12-18T23:35:15.985Z,39.47
2022-12-18T23:38:00.659Z,37.43
2022-12-18T23:40:29.768Z,36.77
2022-12-18T23:42:57.614Z,38.80
2022-12-18T23:45:26.738Z,35.20
2022-12-18T23:47:54.554Z,36.70
2022-12-18T23:50:27.707Z,38.77
2022-12-18T23:52:56.965Z,37.40
2022-12-18T23:55:33.060Z,39.63
2022-12-18T23:58:00.757Z,39.97
